»·PEaware :: PSV800 KEYW-KATL

PSV800 :: KEYW-KATL

FLIGHT INFORMATION

Flight Status: Arrived
Operator:
Power Set Virtual (website)
More flights by this operator :: More flights under this callsign
Pilot: Scott L. (17677)
Aircraft: CESSNA 510 CITATION MUSTANG
(C510)
More flights by this aircraft type
Origin: KEYW Key West Intl
United States
Destination: KATL Hartsfield-Jackson Atlanta
United States
More flights between these airports :: More routes between these airports
Route: TUNSL FEMID Q118 SHEEK SMELZ AMORY Q110 DAWWN BEORN GNDLF2
File this flight plan on PilotEdge
Remarks:
Altitude:
(Current/Filed)
36,000ft
Speed:
(Current/Filed)
400kts
Departed: 11-Apr-20 08:36 AM
Arrived: 11-Apr-20 10:23 AM
Distance/Time
Traveled:
562nm/1:46
Distance/Time
To Go:
Arrived

Flight Plot

Page will automatically refresh every two minutes.

Flight plan parsing failed; only flown route is shown


Map Options




Map Legend


Flown Route
Filed Route
Departure Airport
Arrival Airport
Navaid (VOR, NDB)
Fix

Horizontal Profiles

Position Reports

Time Latitude Longitude Heading Altitude Ground
Speed
11-Apr-20 08:34 25.103764 -81.617154 2 16281ft 322kts
11-Apr-20 08:35 25.185183 -81.604257 1 18144ft 320kts
11-Apr-20 08:36 25.274248 -81.590244 1 19900ft 324kts
11-Apr-20 08:37 25.363444 -81.576043 0 21630ft 326kts
11-Apr-20 08:38 25.453796 -81.561659 0 23073ft 335kts
11-Apr-20 08:39 25.547754 -81.546701 0 24120ft 347kts
11-Apr-20 08:40 25.644122 -81.531211 359 25160ft 353kts
11-Apr-20 08:41 25.740313 -81.515708 359 26184ft 355kts
11-Apr-20 08:42 25.837700 -81.500016 359 27217ft 355kts
11-Apr-20 08:43 25.935558 -81.484206 358 28253ft 356kts
11-Apr-20 08:44 26.033271 -81.468405 358 29287ft 355kts
11-Apr-20 08:45 26.129858 -81.461052 340 30326ft 336kts
11-Apr-20 08:46 26.221350 -81.479971 339 31383ft 335kts
11-Apr-20 08:47 26.312675 -81.498986 339 32439ft 333kts
11-Apr-20 08:48 26.403396 -81.517891 339 33491ft 331kts
11-Apr-20 08:49 26.483449 -81.534702 339 34111ft 338kts
11-Apr-20 08:50 26.578597 -81.554872 339 34109ft 358kts
11-Apr-20 08:51 26.677802 -81.575682 340 34105ft 368kts
11-Apr-20 08:52 26.779641 -81.597055 340 34106ft 374kts
11-Apr-20 08:53 26.882406 -81.618675 340 34106ft 376kts
11-Apr-20 08:54 26.985422 -81.640059 338 34117ft 375kts
11-Apr-20 08:55 27.087317 -81.662044 337 34120ft 370kts
11-Apr-20 08:56 27.187994 -81.684743 337 34127ft 368kts
11-Apr-20 08:57 27.288299 -81.707223 337 34126ft 367kts
11-Apr-20 08:58 27.388536 -81.729685 337 34126ft 367kts
11-Apr-20 08:59 27.488336 -81.752060 337 34127ft 367kts
11-Apr-20 09:00 27.587880 -81.775538 328 34109ft 354kts
11-Apr-20 09:01 27.670427 -81.830670 320 34131ft 345kts
11-Apr-20 09:02 27.752530 -81.885663 320 34130ft 344kts
11-Apr-20 09:03 27.834692 -81.941112 320 34130ft 344kts
11-Apr-20 09:04 27.916655 -81.996524 320 34131ft 343kts
11-Apr-20 09:05 27.998470 -82.051971 320 34131ft 343kts
11-Apr-20 09:06 28.079587 -82.107108 320 34131ft 342kts
11-Apr-20 09:07 28.158670 -82.163191 319 34133ft 342kts
11-Apr-20 09:08 28.238907 -82.220319 319 34132ft 342kts
11-Apr-20 09:09 28.319249 -82.277674 319 34131ft 342kts
11-Apr-20 09:10 28.399379 -82.334970 319 34135ft 341kts
11-Apr-20 09:11 28.479571 -82.392302 319 34138ft 341kts
11-Apr-20 09:12 28.559898 -82.449971 319 34134ft 341kts
11-Apr-20 09:13 28.639761 -82.507385 319 34134ft 340kts
11-Apr-20 09:14 28.719906 -82.565115 319 34121ft 340kts
11-Apr-20 09:15 28.800112 -82.622970 319 34106ft 340kts
11-Apr-20 09:16 28.880161 -82.680829 319 34123ft 340kts
11-Apr-20 09:17 28.960424 -82.738927 319 34121ft 342kts
11-Apr-20 09:18 29.041094 -82.797065 318 34121ft 340kts
11-Apr-20 09:19 29.120222 -82.854347 316 34131ft 336kts
11-Apr-20 09:20 29.198732 -82.911785 316 34141ft 334kts
11-Apr-20 09:21 29.277051 -82.969060 316 34147ft 335kts
11-Apr-20 09:22 29.355589 -83.026554 315 34146ft 336kts
11-Apr-20 09:23 29.434683 -83.084553 316 34145ft 338kts
11-Apr-20 09:24 29.514077 -83.142795 316 34143ft 338kts
11-Apr-20 09:25 29.593115 -83.200977 316 34141ft 339kts
11-Apr-20 09:26 29.672646 -83.259518 316 34140ft 339kts
11-Apr-20 09:27 29.751655 -83.317822 315 34138ft 338kts
11-Apr-20 09:28 29.830840 -83.376431 316 34135ft 338kts
11-Apr-20 09:29 29.909783 -83.434867 315 34135ft 338kts
11-Apr-20 09:30 29.988749 -83.493506 315 34136ft 337kts
11-Apr-20 09:31 30.067457 -83.552044 316 34131ft 337kts
11-Apr-20 09:32 30.146262 -83.610700 315 34141ft 337kts
11-Apr-20 09:33 30.224985 -83.669288 315 34172ft 338kts
11-Apr-20 09:34 30.304682 -83.728330 315 34179ft 340kts
11-Apr-20 09:35 30.384308 -83.787405 315 34187ft 341kts
11-Apr-20 09:36 30.464161 -83.846789 316 34180ft 341kts
11-Apr-20 09:37 30.543814 -83.906143 315 34182ft 341kts
11-Apr-20 09:38 30.623407 -83.965475 315 34185ft 340kts
11-Apr-20 09:39 30.703039 -84.025142 316 34181ft 341kts
11-Apr-20 09:40 30.782888 -84.084869 315 34175ft 340kts
11-Apr-20 09:41 30.862403 -84.144676 315 34173ft 340kts
11-Apr-20 09:42 30.942054 -84.204482 315 34167ft 339kts
11-Apr-20 09:43 31.021299 -84.264040 314 34167ft 339kts
11-Apr-20 09:44 31.099942 -84.323544 314 34166ft 339kts
11-Apr-20 09:45 31.179204 -84.383771 314 34166ft 338kts
11-Apr-20 09:46 31.257971 -84.443528 314 34163ft 338kts
11-Apr-20 09:47 31.336525 -84.503208 314 34161ft 338kts
11-Apr-20 09:48 31.415398 -84.563242 314 34165ft 337kts
11-Apr-20 09:49 31.495972 -84.620264 323 34169ft 352kts
11-Apr-20 09:50 31.585695 -84.665131 322 34190ft 351kts
11-Apr-20 09:51 31.675718 -84.710271 322 34184ft 353kts
11-Apr-20 09:52 31.766152 -84.755580 323 34180ft 355kts
11-Apr-20 09:53 31.856765 -84.801013 322 34179ft 355kts
11-Apr-20 09:54 31.948123 -84.846136 323 34184ft 356kts
11-Apr-20 09:55 32.040540 -84.890540 324 33575ft 369kts
11-Apr-20 09:56 32.137304 -84.937157 325 32023ft 382kts
11-Apr-20 09:57 32.236533 -84.984830 326 30326ft 388kts
11-Apr-20 09:58 32.336150 -85.032683 327 28630ft 381kts
11-Apr-20 09:59 32.431600 -85.078733 328 26414ft 368kts
11-Apr-20 10:00 32.525040 -85.123952 329 24198ft 359kts
11-Apr-20 10:01 32.616748 -85.168461 330 21985ft 356kts
11-Apr-20 10:02 32.707864 -85.212740 331 19758ft 351kts
11-Apr-20 10:03 32.797671 -85.249728 356 17495ft 354kts
11-Apr-20 10:04 32.894893 -85.237630 0 15292ft 350kts
11-Apr-20 10:05 32.989723 -85.226391 1 13352ft 334kts
11-Apr-20 10:06 33.062327 -85.160740 50 11557ft 345kts
11-Apr-20 10:07 33.119140 -85.068776 51 10346ft 344kts
11-Apr-20 10:08 33.176258 -84.977138 51 8676ft 344kts
11-Apr-20 10:09 33.232140 -84.892975 51 8021ft 304kts
11-Apr-20 10:10 33.282159 -84.814994 51 8024ft 282kts
11-Apr-20 10:12 33.342122 -84.783730 335 8008ft 261kts
11-Apr-20 10:13 33.413932 -84.799923 355 8000ft 269kts
11-Apr-20 10:14 33.484608 -84.803351 355 7994ft 224kts
11-Apr-20 10:15 33.546559 -84.805789 8 6298ft 231kts
11-Apr-20 10:16 33.590093 -84.757458 45 3886ft 197kts
11-Apr-20 10:17 33.622489 -84.709230 61 3020ft 181kts
11-Apr-20 10:18 33.620480 -84.649465 93 3013ft 186kts
11-Apr-20 10:19 33.620130 -84.583866 88 3016ft 195kts
11-Apr-20 10:20 33.620142 -84.521926 88 2621ft 158kts
11-Apr-20 10:21 33.619982 -84.472421 88 1557ft 120kts
11-Apr-20 10:22 33.620279 -84.437908 89 931ft 71kts
11-Apr-20 10:23 33.622121 -84.431691 272 949ft 13kts
11-Apr-20 10:24 33.626393 -84.433119 1 980ft 18kts
11-Apr-20 10:25 33.630945 -84.431934 26 1001ft 2kts
11-Apr-20 10:26 33.630947 -84.431933 26 1001ft 0kts
11-Apr-20 10:27 33.631065 -84.431865 24 1001ft 9kts
11-Apr-20 10:28 33.633785 -84.428653 43 1000ft 2kts
11-Apr-20 10:29 33.633804 -84.428635 35 1000ft 0kts
11-Apr-20 10:30 33.633804 -84.428635 35 1000ft 0kts
11-Apr-20 10:31 33.634829 -84.428519 4 1002ft 13kts

Navigation Log

Ident Type
Flight plan parsing failed, navigation log unavailable